Time;durP1;ratioP1;P1;durP2;ratioP2;P2;SDS_P1;SDS_P2;PMS_P1;PMS_P2;Temp;Humidity;BMP_temperature;BMP_pressure;BME280_temperature;BME280_humidity;BME280_pressure;Samples;Min_cycle;Max_cycle;Signal;HPM_P1;HPM_P2
2023/08/04 00:00:55;;;;;;;16.27;7.72;;;;;;;13.34;100.00;101022.31;4935583;29;20119;-75
2023/08/04 00:03:20;;;;;;;14.88;7.03;;;;;;;13.16;100.00;100989.88;4935848;29;20048;-76
2023/08/04 00:05:46;;;;;;;14.90;7.60;;;;;;;13.21;100.00;101016.34;4936187;29;20031;-77
2023/08/04 00:08:11;;;;;;;13.45;6.30;;;;;;;13.19;100.00;101015.63;4936045;29;20032;-76
2023/08/04 00:10:36;;;;;;;21.73;7.90;;;;;;;13.09;100.00;101010.25;4935837;29;20497;-78
2023/08/04 00:13:01;;;;;;;15.15;7.93;;;;;;;13.14;100.00;101017.69;4919089;29;20035;-78
2023/08/04 00:15:28;;;;;;;15.65;7.43;;;;;;;13.08;100.00;101029.31;4935646;29;20027;-78
2023/08/04 00:17:54;;;;;;;14.20;7.45;;;;;;;12.94;100.00;101013.88;4935924;29;20067;-77
2023/08/04 00:20:19;;;;;;;16.17;7.90;;;;;;;13.00;100.00;101023.84;4935739;29;20102;-76
2023/08/04 00:22:45;;;;;;;16.67;7.93;;;;;;;12.97;100.00;101023.22;4935680;29;20039;-76
2023/08/04 00:25:10;;;;;;;19.23;7.85;;;;;;;12.92;100.00;101026.13;4935578;29;20031;-78
2023/08/04 00:27:35;;;;;;;14.95;8.00;;;;;;;12.73;100.00;101005.03;4935655;29;20039;-79
2023/08/04 00:30:01;;;;;;;18.77;7.85;;;;;;;12.80;100.00;101022.63;4935528;29;20385;-77
2023/08/04 00:32:27;;;;;;;13.75;7.28;;;;;;;12.83;100.00;101037.97;4935638;29;20527;-77
2023/08/04 00:34:52;;;;;;;14.25;7.55;;;;;;;12.55;100.00;101000.16;4935677;29;20034;-76
2023/08/04 00:37:17;;;;;;;16.25;7.50;;;;;;;12.69;100.00;101014.78;4935422;29;20036;-77
2023/08/04 00:39:43;;;;;;;12.90;7.50;;;;;;;12.69;100.00;101030.31;4935543;29;20489;-77
2023/08/04 00:42:08;;;;;;;19.38;7.70;;;;;;;12.67;100.00;101036.53;4918287;29;20043;-77
2023/08/04 00:44:34;;;;;;;16.02;7.43;;;;;;;12.67;100.00;101041.69;4935387;29;20027;-77
2023/08/04 00:46:59;;;;;;;19.45;8.18;;;;;;;12.63;100.00;101034.16;4935486;29;20028;-77
2023/08/04 00:49:24;;;;;;;16.73;7.78;;;;;;;12.52;100.00;101022.88;4935646;29;20027;-77
2023/08/04 00:51:50;;;;;;;15.18;7.90;;;;;;;12.59;100.00;101042.25;4935432;29;20090;-77
2023/08/04 00:54:16;;;;;;;17.75;7.78;;;;;;;12.59;100.00;101050.03;4935622;29;20386;-77
2023/08/04 00:56:41;;;;;;;14.75;7.70;;;;;;;12.57;100.00;101042.31;4935297;29;20082;-77
2023/08/04 00:59:07;;;;;;;14.85;7.75;;;;;;;12.38;100.00;101030.72;4935331;29;20099;-77
2023/08/04 01:01:32;;;;;;;17.75;8.07;;;;;;;12.60;100.00;101054.25;4935154;29;20514;-77
2023/08/04 01:03:58;;;;;;;14.25;7.07;;;;;;;12.50;100.00;101035.09;4935196;29;20042;-77
2023/08/04 01:06:38;;;;;;;16.98;7.63;;;;;;;12.51;100.00;101041.94;4935218;29;20028;-77
2023/08/04 01:09:15;;;;;;;17.42;7.40;;;;;;;12.54;100.00;101063.28;4935495;29;20040;-77
2023/08/04 01:11:51;;;;;;;17.73;7.28;;;;;;;12.39;100.00;101059.13;4935393;29;20032;-77
2023/08/04 01:14:18;;;;;;;18.25;7.68;;;;;;;12.46;100.00;101068.13;4935022;29;20036;-79
2023/08/04 01:16:44;;;;;;;14.98;7.82;;;;;;;12.46;100.00;101072.47;4935283;29;20043;-79
2023/08/04 01:19:09;;;;;;;17.83;7.78;;;;;;;12.42;100.00;101065.84;4937785;29;20142;-79
2023/08/04 01:21:42;;;;;;;16.55;7.93;;;;;;;12.40;100.00;101071.16;4936997;29;20552;-79
2023/08/04 01:24:08;;;;;;;14.30;7.75;;;;;;;12.34;100.00;101069.78;4939063;29;20102;-78
2023/08/04 01:26:37;;;;;;;15.30;7.60;;;;;;;12.32;100.00;101065.66;4935361;29;20031;-77
2023/08/04 01:29:03;;;;;;;16.98;8.20;;;;;;;12.30;100.00;101070.94;4938795;29;20091;-77
2023/08/04 01:31:29;;;;;;;17.55;7.97;;;;;;;12.25;100.00;101069.56;4938900;29;20115;-78
2023/08/04 01:33:54;;;;;;;14.48;7.90;;;;;;;12.31;100.00;101082.13;4938675;29;20447;-77
2023/08/04 01:36:20;;;;;;;15.63;8.48;;;;;;;12.31;100.00;101069.16;4936817;29;20043;-77
2023/08/04 01:38:45;;;;;;;18.35;8.07;;;;;;;12.38;100.00;101082.53;4938602;29;20038;-77
2023/08/04 01:41:10;;;;;;;13.55;7.15;;;;;;;12.39;100.00;101085.03;4938681;29;20016;-77
2023/08/04 01:43:36;;;;;;;14.02;7.70;;;;;;;12.33;100.00;101073.31;4938506;29;20075;-76
2023/08/04 01:46:01;;;;;;;14.35;7.70;;;;;;;12.41;100.00;101088.34;4938398;29;20091;-76
2023/08/04 01:48:27;;;;;;;15.05;8.18;;;;;;;12.28;100.00;101064.16;4938360;29;20035;-77
2023/08/04 01:50:52;;;;;;;16.33;8.98;;;;;;;12.42;100.00;101084.00;4938543;29;20064;-77
2023/08/04 01:53:18;;;;;;;16.48;8.85;;;;;;;12.38;100.00;101077.34;4938315;29;20114;-77
2023/08/04 01:55:43;;;;;;;20.50;8.77;;;;;;;12.45;100.00;101097.56;4938348;29;20028;-77
2023/08/04 01:58:08;;;;;;;23.23;8.63;;;;;;;12.46;100.00;101093.19;4938369;29;20035;-76
2023/08/04 02:00:34;;;;;;;18.73;8.57;;;;;;;12.33;100.00;101062.94;4937932;29;20035;-77
2023/08/04 02:02:59;;;;;;;18.15;8.27;;;;;;;12.47;100.00;101087.09;4937028;29;20039;-77
2023/08/04 02:05:24;;;;;;;20.73;8.65;;;;;;;12.47;100.00;101090.50;4936932;29;20046;-77
2023/08/04 02:07:50;;;;;;;17.65;8.57;;;;;;;12.51;100.00;101088.56;4937162;29;20390;-77
2023/08/04 02:10:15;;;;;;;15.00;8.27;;;;;;;12.54;100.00;101088.34;4937046;29;20032;-78
2023/08/04 02:12:42;;;;;;;20.55;8.18;;;;;;;12.45;100.00;101069.06;4937023;29;20123;-77
2023/08/04 02:15:07;;;;;;;18.25;9.52;;;;;;;12.51;100.00;101076.44;4936697;29;20036;-77
2023/08/04 02:17:34;;;;;;;16.95;9.75;;;;;;;12.56;100.00;101081.28;4936526;29;20031;-77
2023/08/04 02:20:00;;;;;;;16.98;8.35;;;;;;;12.77;100.00;101107.50;4937118;29;20405;-77
2023/08/04 02:22:25;;;;;;;17.23;9.23;;;;;;;12.82;100.00;101110.63;4937076;29;20028;-77
2023/08/04 02:24:50;;;;;;;18.38;9.13;;;;;;;12.85;100.00;101105.25;4936763;29;20032;-77
2023/08/04 02:27:15;;;;;;;21.20;8.43;;;;;;;12.88;100.00;101105.88;4936606;29;20032;-77
2023/08/04 02:29:41;;;;;;;18.60;8.88;;;;;;;12.94;100.00;101107.22;4935408;29;20035;-77
2023/08/04 02:32:06;;;;;;;15.98;8.73;;;;;;;12.99;100.00;101114.69;4936519;29;20020;-77
2023/08/04 02:34:32;;;;;;;22.67;8.70;;;;;;;12.97;100.00;101109.56;4936742;29;20028;-77
2023/08/04 02:36:57;;;;;;;19.10;9.32;;;;;;;12.72;100.00;101070.72;4936781;29;20107;-77
2023/08/04 02:39:22;;;;;;;16.92;8.63;;;;;;;13.02;100.00;101109.28;4936527;29;20114;-78
2023/08/04 02:41:48;;;;;;;19.10;9.35;;;;;;;13.05;100.00;101107.28;4936478;29;20039;-78
2023/08/04 02:44:13;;;;;;;17.92;8.93;;;;;;;13.08;100.00;101109.69;4936506;29;20039;-77
2023/08/04 02:46:38;;;;;;;16.88;8.73;;;;;;;13.07;100.00;101113.19;4936168;29;20027;-78
2023/08/04 02:49:04;;;;;;;18.08;9.27;;;;;;;13.05;100.00;101103.88;4936442;29;20036;-78
2023/08/04 02:51:29;;;;;;;19.05;9.05;;;;;;;13.06;100.00;101097.75;4936407;29;20062;-77
2023/08/04 02:53:54;;;;;;;14.43;8.88;;;;;;;13.16;100.00;101114.34;4936402;29;20382;-77
2023/08/04 02:56:20;;;;;;;18.95;9.00;;;;;;;13.01;100.00;101082.53;4936305;29;20024;-78
2023/08/04 02:58:47;;;;;;;17.58;8.32;;;;;;;13.18;100.00;101115.09;4919227;29;20020;-77
2023/08/04 03:01:13;;;;;;;15.60;8.65;;;;;;;13.17;100.00;101113.41;4898908;29;1083400;-77
2023/08/04 03:03:38;;;;;;;18.88;8.30;;;;;;;13.18;100.00;101113.31;4937238;29;20759;-78
2023/08/04 03:06:04;;;;;;;15.65;8.18;;;;;;;13.19;100.00;101112.41;4937443;29;20023;-78
2023/08/04 03:08:31;;;;;;;15.80;8.40;;;;;;;13.18;100.00;101108.13;4937254;29;20560;-77
2023/08/04 03:10:57;;;;;;;16.75;8.18;;;;;;;13.21;100.00;101120.06;4937264;29;20039;-77
2023/08/04 03:13:22;;;;;;;16.55;8.70;;;;;;;13.23;100.00;101114.78;4936937;29;20031;-78
2023/08/04 03:15:55;;;;;;;16.63;8.38;;;;;;;13.23;100.00;101114.78;4937213;29;20059;-78
2023/08/04 03:18:20;;;;;;;18.70;8.55;;;;;;;12.94;100.00;101070.91;4936793;29;20036;-78
2023/08/04 03:20:45;;;;;;;18.08;8.35;;;;;;;13.24;100.00;101119.03;4937033;29;20042;-78
2023/08/04 03:23:11;;;;;;;16.85;8.55;;;;;;;13.15;100.00;101110.09;4936770;29;20051;-78
2023/08/04 03:25:36;;;;;;;17.95;8.63;;;;;;;13.23;100.00;101127.75;4936818;29;20497;-77
2023/08/04 03:28:01;;;;;;;16.90;9.02;;;;;;;13.24;100.00;101127.63;4936700;29;20027;-78
2023/08/04 03:30:27;;;;;;;14.43;8.40;;;;;;;13.15;100.00;101116.09;4936763;29;20024;-78
2023/08/04 03:32:53;;;;;;;16.27;8.43;;;;;;;13.24;100.00;101127.63;4936355;29;20027;-78
2023/08/04 03:35:18;;;;;;;16.83;8.07;;;;;;;13.06;100.00;101097.75;4936775;29;20067;-78
2023/08/04 03:37:43;;;;;;;15.40;8.07;;;;;;;13.24;100.00;101134.59;4936520;29;20064;-78
2023/08/04 03:40:09;;;;;;;14.63;8.32;;;;;;;13.15;100.00;101117.88;4936523;29;20028;-79
2023/08/04 03:42:37;;;;;;;16.95;8.35;;;;;;;13.07;100.00;101115.78;4936475;29;20031;-79
2023/08/04 03:45:02;;;;;;;15.95;7.88;;;;;;;13.17;100.00;101127.22;4936541;29;20024;-80
2023/08/04 03:47:29;;;;;;;16.40;8.05;;;;;;;13.20;100.00;101137.41;4936182;29;20027;-79
2023/08/04 03:49:55;;;;;;;15.45;8.15;;;;;;;13.10;100.00;101109.59;4936220;29;20030;-79
2023/08/04 03:52:20;;;;;;;21.23;8.80;;;;;;;13.20;100.00;101131.38;4936233;29;20024;-80
2023/08/04 03:54:45;;;;;;;21.50;8.98;;;;;;;13.21;100.00;101133.03;4936202;29;20226;-79
2023/08/04 03:57:11;;;;;;;14.68;8.13;;;;;;;13.18;100.00;101134.06;4934575;29;20028;-79
2023/08/04 03:59:36;;;;;;;17.75;8.70;;;;;;;13.15;100.00;101130.81;4936211;29;20078;-78
2023/08/04 04:02:01;;;;;;;14.38;8.13;;;;;;;13.17;100.00;101136.72;4935982;29;20501;-77
2023/08/04 04:04:26;;;;;;;13.43;7.15;;;;;;;13.09;100.00;101133.84;4934106;29;20134;-77
2023/08/04 04:06:52;;;;;;;16.35;8.48;;;;;;;13.08;100.00;101135.63;4936102;29;20024;-77
2023/08/04 04:09:17;;;;;;;14.57;7.20;;;;;;;13.03;100.00;101142.88;4935761;29;20067;-77
2023/08/04 04:11:42;;;;;;;14.05;7.93;;;;;;;13.02;100.00;101146.41;4936003;29;20055;-77
2023/08/04 04:14:10;;;;;;;13.45;7.63;;;;;;;13.00;100.00;101139.69;4936070;29;20036;-79
2023/08/04 04:16:36;;;;;;;15.90;8.52;;;;;;;12.97;100.00;101132.09;4935833;29;20028;-78
2023/08/04 04:19:01;;;;;;;14.45;7.72;;;;;;;13.00;100.00;101139.69;4935582;29;20377;-79
2023/08/04 04:21:26;;;;;;;14.90;7.85;;;;;;;13.04;100.00;101143.69;4935692;29;20030;-77
2023/08/04 04:23:52;;;;;;;13.30;7.50;;;;;;;13.06;100.00;101139.22;4935646;29;20055;-78
2023/08/04 04:26:17;;;;;;;16.55;8.00;;;;;;;13.12;100.00;101149.19;4935830;29;20099;-77
2023/08/04 04:28:42;;;;;;;16.63;7.68;;;;;;;13.12;100.00;101157.81;4935705;29;20028;-76
2023/08/04 04:31:08;;;;;;;13.65;7.57;;;;;;;13.13;100.00;101153.44;4935642;29;20528;-77
2023/08/04 04:33:33;;;;;;;13.73;7.93;;;;;;;13.04;100.00;101148.88;4935537;29;20447;-77
2023/08/04 04:35:58;;;;;;;12.68;7.75;;;;;;;13.13;100.00;101162.06;4935263;29;20386;-78
2023/08/04 04:38:27;;;;;;;18.13;8.20;;;;;;;13.13;100.00;101169.00;4935508;29;20043;-77
2023/08/04 04:41:00;;;;;;;15.07;7.97;;;;;;;13.15;100.00;101157.59;4935464;29;20024;-77
2023/08/04 04:43:27;;;;;;;15.68;7.85;;;;;;;13.12;100.00;101160.41;4935632;29;20400;-78
2023/08/04 04:45:52;;;;;;;15.55;7.40;;;;;;;13.11;100.00;101163.09;4935465;29;20028;-78
2023/08/04 04:48:19;;;;;;;16.27;7.68;;;;;;;12.97;100.00;101158.84;4935270;29;20035;-78
2023/08/04 04:50:44;;;;;;;14.43;8.05;;;;;;;13.01;100.00;101172.44;4918161;29;20031;-77
2023/08/04 04:53:09;;;;;;;14.15;8.27;;;;;;;13.03;100.00;101173.97;4934759;29;20038;-78
2023/08/04 04:55:35;;;;;;;13.60;7.18;;;;;;;13.02;100.00;101174.09;4918564;29;20389;-78
2023/08/04 04:58:00;;;;;;;16.25;8.30;;;;;;;13.08;100.00;101174.53;4935147;29;20032;-78
2023/08/04 05:00:26;;;;;;;14.77;7.85;;;;;;;13.13;100.00;101182.81;4935393;29;20042;-79
2023/08/04 05:02:51;;;;;;;14.85;8.10;;;;;;;13.15;100.00;101182.69;4934977;29;20055;-78
2023/08/04 05:05:17;;;;;;;15.82;8.15;;;;;;;13.26;100.00;101185.41;4916984;29;20500;-79
2023/08/04 05:07:42;;;;;;;15.45;8.00;;;;;;;13.31;100.00;101185.09;4935481;29;20063;-79
2023/08/04 05:10:08;;;;;;;16.65;8.55;;;;;;;13.38;100.00;101188.94;4935147;29;20587;-78
2023/08/04 05:12:33;;;;;;;20.92;8.25;;;;;;;13.45;100.00;101191.00;4935363;29;20052;-79
2023/08/04 05:14:59;;;;;;;17.95;8.55;;;;;;;13.56;100.00;101199.78;4935146;29;20027;-78
2023/08/04 05:17:24;;;;;;;16.15;8.13;;;;;;;13.61;100.00;101189.94;4935176;29;20032;-79
2023/08/04 05:19:49;;;;;;;19.98;9.05;;;;;;;13.63;100.00;101175.91;4934840;29;20030;-80
2023/08/04 05:22:15;;;;;;;12.98;7.93;;;;;;;13.92;100.00;101199.81;4935065;29;20395;-79
2023/08/04 05:24:40;;;;;;;18.23;7.75;;;;;;;14.09;100.00;101205.59;4933847;29;20087;-80
2023/08/04 05:27:05;;;;;;;14.65;7.70;;;;;;;14.25;100.00;101206.13;4935201;29;20387;-79
2023/08/04 05:29:31;;;;;;;14.15;7.65;;;;;;;14.42;100.00;101203.13;4935140;29;20114;-79
2023/08/04 05:31:56;;;;;;;14.45;7.30;;;;;;;14.61;100.00;101205.25;4918074;29;20045;-79
2023/08/04 05:34:21;;;;;;;15.75;7.72;;;;;;;15.15;100.00;101202.06;4934622;29;20036;-79
2023/08/04 05:36:47;;;;;;;15.38;7.63;;;;;;;16.65;100.00;101193.59;4933142;29;20036;-80
2023/08/04 05:39:12;;;;;;;12.65;6.60;;;;;;;18.51;100.00;101200.97;4934847;29;20042;-80
2023/08/04 05:41:37;;;;;;;12.95;5.72;;;;;;;20.12;92.82;101215.53;4934868;29;20114;-79
2023/08/04 05:44:03;;;;;;;11.52;5.47;;;;;;;21.31;85.99;101208.91;4935111;29;20062;-80
2023/08/04 05:46:31;;;;;;;10.73;4.88;;;;;;;22.24;78.35;101214.16;4934941;29;20028;-80
2023/08/04 05:48:57;;;;;;;10.90;4.55;;;;;;;22.79;74.53;101211.66;4934796;29;20928;-80
2023/08/04 05:51:22;;;;;;;8.25;4.68;;;;;;;23.43;72.05;101214.31;4934740;29;20035;-80
2023/08/04 05:53:47;;;;;;;9.18;4.95;;;;;;;24.00;67.29;101219.34;4934915;29;20039;-80
2023/08/04 05:56:13;;;;;;;8.82;4.47;;;;;;;23.97;65.85;101209.94;4935082;29;20064;-79
2023/08/04 05:58:38;;;;;;;11.00;5.07;;;;;;;23.69;66.25;101235.16;4934662;29;20059;-80
2023/08/04 06:01:03;;;;;;;9.38;4.45;;;;;;;23.73;67.21;101213.56;4917416;29;20387;-79
2023/08/04 06:03:29;;;;;;;7.97;4.50;;;;;;;24.46;64.10;101224.63;4936371;23;20088;-80
2023/08/04 06:05:54;;;;;;;10.68;4.28;;;;;;;25.32;62.06;101233.88;4918705;29;20119;-81
2023/08/04 06:08:19;;;;;;;10.35;4.35;;;;;;;26.06;59.37;101236.44;4919011;29;20398;-79
2023/08/04 06:10:45;;;;;;;8.13;3.72;;;;;;;26.30;57.66;101228.09;4918950;29;20172;-85
2023/08/04 06:13:10;;;;;;;9.55;3.90;;;;;;;26.46;55.76;101221.75;4918996;29;20064;-82
2023/08/04 06:15:36;;;;;;;11.43;4.38;;;;;;;27.01;53.62;101241.28;4918835;29;20043;-79
2023/08/04 06:18:01;;;;;;;7.47;4.00;;;;;;;27.40;52.52;101222.16;4918650;29;20046;-80
2023/08/04 06:20:27;;;;;;;10.05;4.03;;;;;;;27.95;49.49;101239.75;4918857;29;20194;-78
2023/08/04 06:22:52;;;;;;;10.75;4.15;;;;;;;27.74;48.99;101241.72;5545194;23;20044;-77
2023/08/04 06:25:18;;;;;;;11.73;4.50;;;;;;;25.53;52.27;101098.25;4916833;29;20140;-77
2023/08/04 06:27:43;;;;;;;8.20;3.65;;;;;;;26.37;52.60;101262.59;4918574;29;20040;-79
2023/08/04 06:30:09;;;;;;;9.93;4.03;;;;;;;25.24;55.11;101248.00;4918799;29;20084;-79
2023/08/04 06:32:35;;;;;;;14.02;4.38;;;;;;;23.94;59.01;101228.75;4918708;29;20028;-80
2023/08/04 06:35:01;;;;;;;9.25;3.92;;;;;;;23.92;61.34;101256.31;4918453;29;20032;-77
2023/08/04 06:37:26;;;;;;;8.82;3.95;;;;;;;24.52;58.74;101264.34;4918643;29;20034;-80
2023/08/04 06:39:52;;;;;;;6.80;3.83;;;;;;;24.62;58.36;101272.03;4918629;29;20117;-80
2023/08/04 06:42:27;;;;;;;8.05;3.60;;;;;;;23.87;61.71;101270.00;4918638;29;20032;-79
2023/08/04 06:44:52;;;;;;;11.60;4.03;;;;;;;22.90;64.42;101257.91;4918551;29;20546;-78
2023/08/04 06:47:17;;;;;;;9.73;3.90;;;;;;;22.25;66.66;101258.72;4918479;29;20173;-75
2023/08/04 06:49:43;;;;;;;7.63;3.53;;;;;;;21.78;69.25;101268.91;4917205;29;20127;-82
2023/08/04 06:52:09;;;;;;;6.70;4.15;;;;;;;21.46;71.90;101278.31;4901310;29;20041;-74
2023/08/04 06:54:36;;;;;;;7.43;3.70;;;;;;;21.09;73.91;101270.66;4918279;29;20504;-77
2023/08/04 06:57:01;;;;;;;7.63;4.28;;;;;;;20.87;76.56;101279.88;4918296;29;20028;-78
2023/08/04 06:59:26;;;;;;;7.90;4.32;;;;;;;20.72;77.72;101284.00;4918238;29;20042;-76
2023/08/04 07:01:52;;;;;;;9.25;4.53;;;;;;;20.64;78.61;101286.53;4916527;29;20139;-71
2023/08/04 07:04:17;;;;;;;9.80;4.18;;;;;;;20.37;79.77;101284.81;4918244;29;20028;-78
2023/08/04 07:06:44;;;;;;;10.20;4.43;;;;;;;20.17;81.87;101270.19;4917937;29;20024;-83
2023/08/04 07:09:10;;;;;;;9.88;4.00;;;;;;;20.22;82.13;101288.91;4918017;29;20092;-77
2023/08/04 07:11:36;;;;;;;8.98;3.97;;;;;;;20.19;82.40;101276.91;4916573;29;20028;-76
2023/08/04 07:14:01;;;;;;;7.03;3.60;;;;;;;20.27;82.38;101286.69;4917929;29;20080;-75
2023/08/04 07:16:26;;;;;;;7.53;3.38;;;;;;;20.30;81.74;101295.06;4917609;29;20024;-77
2023/08/04 07:18:52;;;;;;;8.13;3.20;;;;;;;20.34;81.02;101291.16;4917907;29;20500;-76
2023/08/04 07:21:17;;;;;;;6.43;2.65;;;;;;;20.51;82.45;101301.84;4916480;29;20401;-76
2023/08/04 07:23:42;;;;;;;6.70;2.47;;;;;;;20.65;78.48;101297.88;4900479;29;20130;-77
2023/08/04 07:26:08;;;;;;;5.50;2.60;;;;;;;20.35;80.05;101271.00;4916237;29;20052;-76
2023/08/04 07:28:35;;;;;;;6.18;2.67;;;;;;;20.57;77.85;101293.38;4917863;29;20039;-74
2023/08/04 07:31:05;;;;;;;7.60;2.90;;;;;;;20.54;80.85;101293.66;4917496;29;20061;-74
2023/08/04 07:33:30;;;;;;;7.88;2.55;;;;;;;20.70;81.01;101299.06;4925046;29;20031;-74
2023/08/04 07:35:56;;;;;;;4.75;2.67;;;;;;;20.70;78.84;101308.75;4936538;29;20098;-74
2023/08/04 07:38:23;;;;;;;5.95;2.65;;;;;;;20.53;76.42;101305.16;4936361;29;20478;-71
2023/08/04 07:40:49;;;;;;;6.22;2.22;;;;;;;20.46;78.86;101301.50;4936314;29;20024;-73
2023/08/04 07:43:14;;;;;;;6.38;2.50;;;;;;;20.39;79.49;101300.41;4918920;29;20043;-74
2023/08/04 07:45:40;;;;;;;4.65;2.17;;;;;;;20.46;78.65;101306.72;4936258;29;20023;-75
2023/08/04 07:48:06;;;;;;;2.88;1.90;;;;;;;20.53;78.67;101294.66;4933103;29;20043;-74
2023/08/04 07:50:32;;;;;;;5.78;2.47;;;;;;;20.78;77.23;101317.53;4936279;29;20091;-73
2023/08/04 07:52:57;;;;;;;5.55;2.53;;;;;;;20.97;78.08;101318.34;4936134;29;20501;-75
2023/08/04 07:55:22;;;;;;;5.13;2.40;;;;;;;21.03;76.69;101301.94;4936049;29;20030;-74
2023/08/04 07:57:48;;;;;;;5.50;2.50;;;;;;;21.15;75.74;101298.94;4936004;29;20043;-74
2023/08/04 08:00:14;;;;;;;8.52;2.70;;;;;;;21.45;75.49;101323.13;4936211;29;20027;-74
2023/08/04 08:02:39;;;;;;;5.25;2.30;;;;;;;21.45;74.69;101323.13;4929960;29;20038;-73
2023/08/04 08:05:05;;;;;;;5.47;2.47;;;;;;;21.38;74.09;101322.09;4900810;29;20036;-72
2023/08/04 08:07:31;;;;;;;4.88;2.30;;;;;;;21.16;73.06;101318.16;4917305;29;20039;-74
2023/08/04 08:09:56;;;;;;;5.85;2.30;;;;;;;21.03;76.10;101323.78;4917154;29;20390;-77
2023/08/04 08:12:21;;;;;;;6.20;2.40;;;;;;;20.92;75.43;101303.84;4916872;29;20039;-79
2023/08/04 08:14:47;;;;;;;6.70;2.50;;;;;;;20.99;75.13;101303.25;4916886;29;20055;-78
2023/08/04 08:17:12;;;;;;;4.68;2.33;;;;;;;21.38;74.66;101320.28;4916869;29;20035;-76
2023/08/04 08:19:37;;;;;;;6.13;2.58;;;;;;;21.59;73.07;101330.44;4916728;29;20039;-79
2023/08/04 08:22:03;;;;;;;7.18;2.75;;;;;;;21.56;72.48;101328.13;4916573;29;20028;-74
2023/08/04 08:24:28;;;;;;;5.43;2.40;;;;;;;21.50;72.56;101330.53;4899798;29;20055;-76
2023/08/04 08:26:54;;;;;;;6.50;2.58;;;;;;;21.63;72.50;101337.03;4916354;29;20024;-76
2023/08/04 08:29:19;;;;;;;5.65;2.25;;;;;;;21.19;72.16;101325.72;4899294;29;20902;-76
2023/08/04 08:31:45;;;;;;;5.57;2.22;;;;;;;21.11;75.12;101338.78;4916656;29;20024;-76
2023/08/04 08:34:10;;;;;;;4.30;2.10;;;;;;;20.83;74.94;101344.13;4916773;29;20028;-79
2023/08/04 08:36:35;;;;;;;5.93;2.42;;;;;;;20.69;75.90;101339.41;4916356;29;20092;-76
2023/08/04 08:39:01;;;;;;;6.55;2.45;;;;;;;20.57;74.37;101338.81;4916477;29;20046;-77
2023/08/04 08:41:26;;;;;;;4.90;1.92;;;;;;;20.66;75.27;101354.66;4916593;29;20123;-75
2023/08/04 08:43:51;;;;;;;5.55;2.17;;;;;;;20.73;75.72;101350.44;4916329;29;20028;-76
2023/08/04 08:46:17;;;;;;;7.32;2.30;;;;;;;20.87;75.61;101350.75;4916523;29;20092;-76
2023/08/04 08:48:46;;;;;;;3.95;2.10;;;;;;;20.89;74.45;101351.41;4916277;29;20025;-74
2023/08/04 08:51:16;;;;;;;6.38;2.45;;;;;;;21.16;73.83;101362.81;4916421;29;20409;-76
2023/08/04 08:53:43;;;;;;;5.28;2.13;;;;;;;21.03;72.84;101363.16;4916212;29;20064;-76
2023/08/04 08:56:09;;;;;;;4.22;1.90;;;;;;;21.17;73.86;101362.66;4916389;29;20016;-73
2023/08/04 08:58:35;;;;;;;4.88;2.13;;;;;;;21.26;71.47;101371.44;4899025;29;20078;-75
2023/08/04 09:01:01;;;;;;;4.18;1.50;;;;;;;21.19;69.26;101360.69;4916405;29;20036;-77
2023/08/04 09:03:27;;;;;;;3.15;1.30;;;;;;;21.31;70.66;101370.97;4914663;29;20024;-72
2023/08/04 09:05:53;;;;;;;4.30;1.63;;;;;;;21.36;70.28;101369.56;4916367;29;20036;-76
2023/08/04 09:08:18;;;;;;;5.78;1.50;;;;;;;21.26;68.59;101353.06;4916173;29;20032;-76
2023/08/04 09:10:44;;;;;;;3.72;1.60;;;;;;;21.62;70.30;101371.34;4898976;29;20040;-76
2023/08/04 09:13:11;;;;;;;5.07;1.83;;;;;;;21.65;71.19;101371.06;4899231;29;20043;-75
2023/08/04 09:15:52;;;;;;;4.82;1.55;;;;;;;21.68;69.26;101374.19;4916355;29;20478;-73
2023/08/04 09:18:32;;;;;;;3.70;1.37;;;;;;;21.66;70.33;101359.56;4916082;29;20028;-73
2023/08/04 09:21:12;;;;;;;2.97;1.55;;;;;;;21.65;71.40;101381.56;4916365;29;20020;-73
2023/08/04 09:23:41;;;;;;;4.20;1.55;;;;;;;21.46;70.48;101386.03;4915824;29;20032;-73
2023/08/04 09:26:07;;;;;;;4.38;1.60;;;;;;;21.09;70.15;101364.38;4915943;29;20506;-74
2023/08/04 09:28:32;;;;;;;4.45;1.48;;;;;;;20.84;72.44;101368.56;4916178;29;20064;-75
2023/08/04 09:31:09;;;;;;;4.18;1.60;;;;;;;20.69;71.88;101383.22;4916095;29;20493;-77
2023/08/04 09:33:41;;;;;;;7.47;2.08;;;;;;;20.34;74.34;101379.50;4899012;29;20433;-74
2023/08/04 09:36:11;;;;;;;4.63;1.48;;;;;;;20.23;76.30;101385.78;4916010;29;20072;-74
2023/08/04 09:38:38;;;;;;;4.00;1.17;;;;;;;19.86;73.70;101379.72;4915879;29;20040;-76
2023/08/04 09:41:11;;;;;;;2.40;1.10;;;;;;;19.78;72.94;101390.94;4919590;29;20036;-76
2023/08/04 09:43:47;;;;;;;2.55;0.90;;;;;;;19.61;72.22;101368.09;4919834;29;20028;-74
2023/08/04 09:46:12;;;;;;;4.82;1.05;;;;;;;19.65;72.61;101383.38;4919499;29;20112;-74
2023/08/04 09:48:38;;;;;;;2.65;0.80;;;;;;;19.73;72.37;101375.63;4920180;29;20060;-71
2023/08/04 09:51:07;;;;;;;2.42;1.00;;;;;;;19.89;72.10;101384.72;4919322;29;20474;-74
2023/08/04 09:53:46;;;;;;;2.28;1.02;;;;;;;20.03;72.22;101378.97;4901919;29;20064;-74
2023/08/04 09:56:17;;;;;;;3.63;1.13;;;;;;;20.13;75.77;101384.19;4919555;29;20086;-75
2023/08/04 09:58:43;;;;;;;2.53;1.33;;;;;;;20.36;73.88;101376.78;4919293;29;20474;-74
2023/08/04 10:01:08;;;;;;;3.63;1.33;;;;;;;20.54;72.27;101390.75;4919260;29;20028;-73
2023/08/04 10:03:36;;;;;;;4.25;1.13;;;;;;;20.70;72.03;101377.81;4919110;29;20111;-75
2023/08/04 10:06:05;;;;;;;2.83;1.40;;;;;;;21.32;72.67;101391.00;4919289;29;20056;-75
2023/08/04 10:08:39;;;;;;;3.97;1.85;;;;;;;21.68;70.23;101382.06;4919275;29;20088;-75
2023/08/04 10:11:06;;;;;;;4.75;1.90;;;;;;;21.72;66.71;101383.38;4919157;29;20108;-76
2023/08/04 10:13:37;;;;;;;5.78;1.73;;;;;;;21.22;69.02;101387.63;4919034;29;20397;-75
2023/08/04 10:16:08;;;;;;;4.30;1.60;;;;;;;21.02;69.95;101386.97;4918988;29;20030;-75
2023/08/04 10:18:57;;;;;;;3.72;1.70;;;;;;;21.13;71.44;101398.06;4918987;29;20028;-75
2023/08/04 10:21:27;;;;;;;3.90;1.90;;;;;;;21.18;68.11;101398.44;4919016;29;20024;-75
2023/08/04 10:23:53;;;;;;;5.43;1.80;;;;;;;21.03;66.80;101389.44;4918688;29;20126;-75
2023/08/04 10:26:19;;;;;;;3.50;1.60;;;;;;;21.10;67.56;101400.16;4918580;29;20131;-75
2023/08/04 10:29:02;;;;;;;3.53;1.75;;;;;;;21.17;68.88;101396.78;4918516;29;20056;-75
2023/08/04 10:31:53;;;;;;;4.70;1.75;;;;;;;21.15;69.69;101398.75;4918911;29;20043;-75
2023/08/04 10:34:18;;;;;;;4.82;1.73;;;;;;;21.17;68.96;101394.16;4918785;29;20474;-74
2023/08/04 10:37:04;;;;;;;6.20;1.80;;;;;;;21.39;69.49;101397.31;4901305;29;20087;-74
2023/08/04 10:39:32;;;;;;;5.85;2.13;;;;;;;21.73;66.02;101395.59;4918828;29;20040;-72
2023/08/04 10:41:59;;;;;;;8.32;2.13;;;;;;;21.91;66.49;101402.56;4919245;29;20370;-72
2023/08/04 10:44:29;;;;;;;4.45;1.60;;;;;;;21.76;64.72;101395.25;4918634;29;20032;-71
2023/08/04 10:47:04;;;;;;;5.28;1.80;;;;;;;21.41;66.42;101382.22;4917026;29;20107;-72
2023/08/04 10:49:30;;;;;;;7.15;2.20;;;;;;;21.50;65.49;101410.19;4901464;29;20032;-73
2023/08/04 10:51:57;;;;;;;4.72;1.90;;;;;;;21.55;64.19;101407.13;4917392;29;20035;-74
2023/08/04 10:54:22;;;;;;;6.22;1.92;;;;;;;21.42;65.15;101389.13;4918403;29;20040;-74
2023/08/04 10:56:47;;;;;;;4.38;1.67;;;;;;;21.62;67.09;101408.13;4918126;29;20071;-74
2023/08/04 10:59:13;;;;;;;6.85;2.20;;;;;;;21.70;66.06;101411.66;4916586;29;20367;-72
2023/08/04 11:01:38;;;;;;;4.28;1.98;;;;;;;22.06;66.75;101414.16;4918995;29;20032;-75
2023/08/04 11:04:03;;;;;;;6.50;2.03;;;;;;;22.42;65.22;101409.56;4918422;29;20493;-72
2023/08/04 11:06:29;;;;;;;5.40;1.92;;;;;;;22.51;64.55;101410.41;4918105;29;20107;-74
2023/08/04 11:08:55;;;;;;;5.93;1.95;;;;;;;22.30;63.73;101421.34;4917806;29;20028;-71
2023/08/04 11:11:21;;;;;;;4.22;1.60;;;;;;;22.25;64.96;101410.50;4917947;29;20032;-75
2023/08/04 11:13:46;;;;;;;6.60;2.35;;;;;;;22.25;64.42;101413.94;4918141;29;20079;-74